createdAt,value
2017-06-09T00:00:20.526Z,0
2017-06-09T00:01:01.194Z,0
2017-06-09T00:01:41.784Z,0
2017-06-09T00:02:22.371Z,0
2017-06-09T00:03:02.961Z,0
2017-06-09T00:03:43.550Z,0
2017-06-09T00:04:24.145Z,0
2017-06-09T00:05:04.720Z,0
2017-06-09T00:05:45.312Z,0
2017-06-09T00:06:25.906Z,0
2017-06-09T00:07:06.495Z,0
2017-06-09T00:07:47.087Z,0
2017-06-09T00:08:27.696Z,0
2017-06-09T00:09:08.303Z,0
2017-06-09T00:09:48.911Z,0
2017-06-09T00:10:29.501Z,0
2017-06-09T00:11:10.089Z,0
2017-06-09T00:11:50.743Z,0
2017-06-09T00:12:31.315Z,0
2017-06-09T00:13:11.962Z,0
2017-06-09T00:13:52.542Z,0
2017-06-09T00:14:33.146Z,0
2017-06-09T00:15:13.759Z,0
2017-06-09T00:15:54.338Z,0
2017-06-09T00:16:34.932Z,0
2017-06-09T00:17:15.518Z,0
2017-06-09T00:17:56.088Z,0
2017-06-09T00:18:36.738Z,0
2017-06-09T00:19:17.363Z,0
2017-06-09T00:19:57.947Z,0
2017-06-09T00:20:38.533Z,0
2017-06-09T00:21:19.122Z,0
2017-06-09T00:21:59.718Z,0
2017-06-09T00:22:40.345Z,0
2017-06-09T00:23:20.932Z,0
2017-06-09T00:24:01.525Z,0
2017-06-09T00:24:42.109Z,0
2017-06-09T00:25:22.691Z,0
2017-06-09T00:26:03.271Z,0
2017-06-09T00:26:43.863Z,0
2017-06-09T00:27:24.447Z,0
2017-06-09T00:28:05.037Z,0
2017-06-09T00:28:45.614Z,0
2017-06-09T00:29:26.202Z,0
2017-06-09T00:30:06.807Z,0
2017-06-09T00:30:47.434Z,0
2017-06-09T00:31:28.024Z,0
2017-06-09T00:32:08.670Z,0
2017-06-09T00:32:49.255Z,0
2017-06-09T00:33:29.856Z,0
2017-06-09T00:34:10.437Z,0
2017-06-09T00:34:51.043Z,0
2017-06-09T00:35:31.622Z,0
2017-06-09T00:36:12.210Z,0
2017-06-09T00:36:52.801Z,0
2017-06-09T00:37:33.388Z,0
2017-06-09T00:38:13.983Z,0
2017-06-09T00:38:54.555Z,0
2017-06-09T00:39:35.130Z,0
2017-06-09T00:40:15.748Z,0
2017-06-09T00:41:03.148Z,0
2017-06-09T00:41:43.727Z,0
2017-06-09T00:42:24.329Z,0
2017-06-09T00:43:04.928Z,0
2017-06-09T00:43:45.519Z,0
2017-06-09T00:44:26.094Z,0
2017-06-09T00:45:06.666Z,0
2017-06-09T00:45:47.294Z,0
2017-06-09T00:46:27.885Z,0
2017-06-09T00:47:08.554Z,0
2017-06-09T00:47:49.172Z,0
2017-06-09T00:48:29.754Z,0
2017-06-09T00:49:10.355Z,0
2017-06-09T00:49:50.950Z,0
2017-06-09T00:50:31.558Z,0
2017-06-09T00:51:12.127Z,0
2017-06-09T00:51:53.224Z,0
2017-06-09T00:52:33.823Z,0
2017-06-09T00:53:14.468Z,0
2017-06-09T00:53:55.058Z,0
2017-06-09T00:54:35.646Z,0
2017-06-09T00:55:16.229Z,0
2017-06-09T00:55:56.850Z,0
2017-06-09T00:56:37.449Z,0
2017-06-09T00:57:18.047Z,0
2017-06-09T00:57:58.636Z,0
2017-06-09T00:58:39.220Z,0
2017-06-09T00:59:19.807Z,0
2017-06-09T01:00:03.326Z,0
2017-06-09T01:00:45.777Z,0
2017-06-09T01:01:26.360Z,0
2017-06-09T01:02:06.937Z,0
2017-06-09T01:02:47.519Z,0
2017-06-09T01:03:28.105Z,0
2017-06-09T01:04:08.724Z,0
2017-06-09T01:04:49.301Z,0
2017-06-09T01:05:29.882Z,0
2017-06-09T01:06:10.462Z,0
2017-06-09T01:06:51.044Z,0
2017-06-09T01:07:31.642Z,0
2017-06-09T01:08:12.223Z,0
2017-06-09T01:08:52.824Z,0
2017-06-09T01:09:33.401Z,0
2017-06-09T01:10:13.992Z,0
2017-06-09T01:10:54.566Z,0
2017-06-09T01:11:35.154Z,0
2017-06-09T01:12:15.736Z,0
2017-06-09T01:12:56.325Z,0
2017-06-09T01:13:36.917Z,0
2017-06-09T01:14:17.523Z,0
2017-06-09T01:14:58.114Z,0
2017-06-09T01:15:38.718Z,0
2017-06-09T01:16:19.340Z,0
2017-06-09T01:16:59.920Z,0
2017-06-09T01:17:40.536Z,0
2017-06-09T01:18:21.115Z,0
2017-06-09T01:19:01.704Z,0
2017-06-09T01:19:42.282Z,0
2017-06-09T01:20:22.920Z,0
2017-06-09T01:21:03.515Z,0
2017-06-09T01:21:44.118Z,0
2017-06-09T01:22:24.706Z,0
2017-06-09T01:23:05.287Z,0
2017-06-09T01:23:45.889Z,0
2017-06-09T01:24:26.469Z,0
2017-06-09T01:25:07.059Z,0
2017-06-09T01:25:47.644Z,0
2017-06-09T01:26:28.246Z,0
2017-06-09T01:27:08.822Z,0
2017-06-09T01:27:49.402Z,0
2017-06-09T01:28:29.987Z,0
2017-06-09T01:29:10.574Z,0
2017-06-09T01:29:51.171Z,0
2017-06-09T01:30:31.756Z,0
2017-06-09T01:31:12.357Z,0
2017-06-09T01:31:52.965Z,0
2017-06-09T01:32:33.546Z,0
2017-06-09T01:33:14.127Z,0
2017-06-09T01:33:54.709Z,0
2017-06-09T01:34:35.307Z,0
2017-06-09T01:35:15.902Z,0
2017-06-09T01:35:56.477Z,0
2017-06-09T01:36:37.123Z,0
2017-06-09T01:37:17.687Z,0
2017-06-09T01:37:58.269Z,0
2017-06-09T01:38:38.861Z,0
2017-06-09T01:39:19.449Z,0
2017-06-09T01:40:00.036Z,0
2017-06-09T01:40:40.626Z,0
2017-06-09T01:41:21.210Z,0
2017-06-09T01:42:01.790Z,0
2017-06-09T01:42:42.381Z,0
2017-06-09T01:43:23.000Z,0
2017-06-09T01:44:03.594Z,0
2017-06-09T01:44:44.184Z,0
2017-06-09T01:45:24.743Z,0
2017-06-09T01:46:05.349Z,0
2017-06-09T01:46:45.947Z,0
2017-06-09T01:47:26.527Z,0
2017-06-09T01:48:07.128Z,0
2017-06-09T01:48:47.706Z,0
2017-06-09T01:49:28.296Z,0
2017-06-09T01:50:08.901Z,0
2017-06-09T01:50:49.500Z,0
2017-06-09T01:51:30.110Z,0
2017-06-09T01:52:10.715Z,0
2017-06-09T01:52:51.310Z,0
2017-06-09T01:53:31.887Z,0
2017-06-09T01:54:12.492Z,0
2017-06-09T01:54:53.085Z,0
2017-06-09T01:55:33.698Z,0
2017-06-09T01:56:14.322Z,0
2017-06-09T01:56:54.897Z,0
2017-06-09T01:57:35.503Z,0
2017-06-09T01:58:16.137Z,0
2017-06-09T01:58:56.729Z,0
2017-06-09T01:59:37.345Z,0
2017-06-09T02:00:17.929Z,0
2017-06-09T02:00:58.502Z,0
2017-06-09T02:01:39.101Z,0
2017-06-09T02:02:19.700Z,0
2017-06-09T02:03:00.290Z,0
2017-06-09T02:03:40.881Z,0
2017-06-09T02:04:21.469Z,0
2017-06-09T02:05:02.108Z,0
2017-06-09T02:05:42.697Z,0
2017-06-09T02:06:23.278Z,0
2017-06-09T02:07:03.882Z,0
2017-06-09T02:07:44.478Z,0
2017-06-09T02:08:25.084Z,0
2017-06-09T02:09:05.673Z,0
2017-06-09T02:09:46.259Z,0
2017-06-09T02:10:26.855Z,0
2017-06-09T02:11:07.463Z,0
2017-06-09T02:11:48.054Z,0
2017-06-09T02:12:28.628Z,0
2017-06-09T02:13:09.254Z,0
2017-06-09T02:13:49.844Z,0
2017-06-09T02:14:30.482Z,0
2017-06-09T02:15:11.048Z,0
2017-06-09T02:15:51.641Z,0
2017-06-09T02:16:32.241Z,0
2017-06-09T02:17:12.901Z,0
2017-06-09T02:17:53.546Z,0
2017-06-09T02:18:34.121Z,0
2017-06-09T02:19:14.697Z,0
2017-06-09T02:19:55.293Z,0
2017-06-09T02:20:35.880Z,0
2017-06-09T02:21:16.474Z,0
2017-06-09T02:21:57.138Z,0
2017-06-09T02:22:37.732Z,0
2017-06-09T02:23:18.316Z,0
2017-06-09T02:23:58.893Z,0
2017-06-09T02:24:39.535Z,0
2017-06-09T02:25:20.094Z,0
2017-06-09T02:26:00.704Z,0
2017-06-09T02:26:41.279Z,0
2017-06-09T02:27:21.868Z,0
2017-06-09T02:28:02.461Z,0
2017-06-09T02:28:43.054Z,0
2017-06-09T02:29:23.658Z,0
2017-06-09T02:30:04.220Z,0
2017-06-09T02:30:44.786Z,0
2017-06-09T02:31:25.411Z,0
2017-06-09T02:32:06.054Z,0
2017-06-09T02:32:46.643Z,0
2017-06-09T02:33:27.224Z,0
2017-06-09T02:34:07.852Z,0
2017-06-09T02:34:48.433Z,0
2017-06-09T02:35:29.014Z,0
2017-06-09T02:36:09.604Z,0
2017-06-09T02:36:50.177Z,0
2017-06-09T02:37:30.768Z,0
2017-06-09T02:38:11.365Z,0
2017-06-09T02:38:51.976Z,0
2017-06-09T02:39:32.562Z,0
2017-06-09T02:40:13.159Z,0
2017-06-09T02:40:53.745Z,0
2017-06-09T02:41:34.328Z,0
2017-06-09T02:42:14.905Z,0
2017-06-09T02:42:55.492Z,0
2017-06-09T02:43:36.232Z,0
2017-06-09T02:44:16.747Z,0
2017-06-09T02:44:57.330Z,0
2017-06-09T02:45:37.906Z,0
2017-06-09T02:46:18.502Z,0
2017-06-09T02:46:59.125Z,0
2017-06-09T02:47:39.748Z,0
2017-06-09T02:48:20.325Z,0
2017-06-09T02:49:00.911Z,0
2017-06-09T02:49:41.493Z,0
2017-06-09T02:50:22.070Z,0
2017-06-09T02:51:02.674Z,0
2017-06-09T02:51:43.279Z,0
2017-06-09T02:52:23.859Z,5
2017-06-09T02:53:04.445Z,5
2017-06-09T02:53:45.006Z,5
2017-06-09T02:54:25.656Z,5
2017-06-09T02:55:06.206Z,5
2017-06-09T02:55:46.805Z,5
2017-06-09T02:56:27.384Z,5
2017-06-09T02:57:07.997Z,5
2017-06-09T02:57:48.590Z,5
2017-06-09T02:58:29.170Z,5
2017-06-09T02:59:09.776Z,5
2017-06-09T02:59:50.396Z,5
2017-06-09T03:00:30.956Z,5
2017-06-09T03:01:11.573Z,5
2017-06-09T03:01:52.153Z,5
2017-06-09T03:02:32.764Z,5
2017-06-09T03:03:13.376Z,5
2017-06-09T03:03:53.962Z,5
2017-06-09T03:04:34.603Z,10
2017-06-09T03:05:15.233Z,10
2017-06-09T03:05:55.823Z,10
2017-06-09T03:06:36.416Z,10
2017-06-09T03:07:17.127Z,10
2017-06-09T03:07:57.729Z,10
2017-06-09T03:08:38.335Z,10
2017-06-09T03:09:18.914Z,10
2017-06-09T03:09:59.540Z,10
2017-06-09T03:10:40.126Z,10
2017-06-09T03:11:20.730Z,10
2017-06-09T03:12:01.321Z,10
2017-06-09T03:12:41.906Z,15
2017-06-09T03:13:22.488Z,15
2017-06-09T03:14:03.087Z,15
2017-06-09T03:14:43.659Z,15
2017-06-09T03:15:24.277Z,15
2017-06-09T03:16:04.896Z,15
2017-06-09T03:16:45.499Z,15
2017-06-09T03:17:26.123Z,15
2017-06-09T03:18:06.741Z,15
2017-06-09T03:18:47.340Z,20
2017-06-09T03:19:27.926Z,20
2017-06-09T03:20:08.619Z,20
2017-06-09T03:20:49.212Z,20
2017-06-09T03:21:29.814Z,20
2017-06-09T03:22:10.410Z,20
2017-06-09T03:22:50.993Z,20
2017-06-09T03:23:31.598Z,25
2017-06-09T03:24:12.213Z,25
2017-06-09T03:24:52.887Z,25
2017-06-09T03:25:33.470Z,25
2017-06-09T03:26:14.078Z,25
2017-06-09T03:26:54.684Z,25
2017-06-09T03:27:35.281Z,25
2017-06-09T03:28:15.920Z,25
2017-06-09T03:28:56.527Z,25
2017-06-09T03:29:37.357Z,25
2017-06-09T03:30:17.962Z,25
2017-06-09T03:30:58.535Z,25
2017-06-09T03:31:39.136Z,25
2017-06-09T03:32:19.900Z,25
2017-06-09T03:33:00.555Z,25
2017-06-09T03:33:41.399Z,25
2017-06-09T03:34:21.985Z,25
2017-06-09T03:35:02.835Z,25
2017-06-09T03:35:43.442Z,25
2017-06-09T03:36:24.051Z,25
2017-06-09T03:37:04.649Z,25
2017-06-09T03:37:45.227Z,25
2017-06-09T03:38:25.826Z,25
2017-06-09T03:39:06.483Z,25
2017-06-09T03:39:47.070Z,25
2017-06-09T03:40:27.675Z,25
2017-06-09T03:41:08.261Z,25
2017-06-09T03:41:48.856Z,25
2017-06-09T03:42:29.460Z,30
2017-06-09T03:43:10.096Z,30
2017-06-09T03:43:50.690Z,30
2017-06-09T03:44:31.264Z,30
2017-06-09T03:45:11.851Z,30
2017-06-09T03:45:52.451Z,30
2017-06-09T03:46:33.100Z,30
2017-06-09T03:47:13.694Z,30
2017-06-09T03:47:54.274Z,30
2017-06-09T03:48:34.864Z,30
2017-06-09T03:49:15.467Z,30
2017-06-09T03:49:56.072Z,30
2017-06-09T03:50:36.660Z,30
2017-06-09T03:51:17.245Z,30
2017-06-09T03:51:57.843Z,30
2017-06-09T03:52:38.512Z,30
2017-06-09T03:53:19.068Z,30
2017-06-09T03:53:59.653Z,30
2017-06-09T03:54:40.272Z,30
2017-06-09T03:55:20.844Z,30
2017-06-09T03:56:01.436Z,30
2017-06-09T03:56:42.047Z,30
2017-06-09T03:57:22.806Z,30
2017-06-09T03:58:03.404Z,30
2017-06-09T03:58:43.986Z,30
2017-06-09T03:59:24.654Z,30
2017-06-09T04:00:05.204Z,30
2017-06-09T04:00:45.805Z,30
2017-06-09T04:01:26.402Z,30
2017-06-09T04:02:07.002Z,30
2017-06-09T04:02:47.607Z,30
2017-06-09T04:03:28.216Z,30
2017-06-09T04:04:08.789Z,35
2017-06-09T04:04:49.376Z,35
2017-06-09T04:05:29.963Z,35
2017-06-09T04:06:10.574Z,35
2017-06-09T04:06:51.160Z,35
2017-06-09T04:07:31.742Z,35
2017-06-09T04:08:12.441Z,40
2017-06-09T04:08:53.024Z,40
2017-06-09T04:09:33.612Z,40
2017-06-09T04:10:14.212Z,40
2017-06-09T04:10:54.800Z,45
2017-06-09T04:11:35.389Z,45
2017-06-09T04:12:15.967Z,45
2017-06-09T04:12:56.567Z,45
2017-06-09T04:13:37.140Z,45
2017-06-09T04:14:17.716Z,45
2017-06-09T04:14:58.300Z,45
2017-06-09T04:15:38.874Z,45
2017-06-09T04:16:19.494Z,50
2017-06-09T04:17:00.074Z,50
2017-06-09T04:17:40.658Z,50
2017-06-09T04:18:21.254Z,50
2017-06-09T04:19:01.896Z,50
2017-06-09T04:19:42.465Z,50
2017-06-09T04:20:23.065Z,50
2017-06-09T04:21:03.654Z,50
2017-06-09T04:21:44.242Z,50
2017-06-09T04:22:24.846Z,50
2017-06-09T04:23:05.445Z,50
2017-06-09T04:23:46.083Z,50
2017-06-09T04:24:26.641Z,50
2017-06-09T04:25:07.238Z,50
2017-06-09T04:25:47.824Z,50
2017-06-09T04:26:28.395Z,50
2017-06-09T04:27:09.014Z,50
2017-06-09T04:27:49.627Z,50
2017-06-09T04:28:30.214Z,50
2017-06-09T04:29:10.798Z,50
2017-06-09T04:29:51.389Z,50
2017-06-09T04:30:31.958Z,50
2017-06-09T04:31:12.550Z,50
2017-06-09T04:31:53.154Z,55
2017-06-09T04:32:33.745Z,55
2017-06-09T04:33:14.349Z,55
2017-06-09T04:33:54.929Z,55
2017-06-09T04:34:35.606Z,55
2017-06-09T04:35:16.240Z,55
2017-06-09T04:35:56.831Z,60
2017-06-09T04:36:37.469Z,60
2017-06-09T04:37:18.052Z,60
2017-06-09T04:37:58.678Z,60
2017-06-09T04:38:39.694Z,60
2017-06-09T04:39:20.565Z,60
2017-06-09T04:40:01.057Z,60
2017-06-09T04:40:41.646Z,60
2017-06-09T04:41:22.504Z,65
2017-06-09T04:42:03.204Z,65
2017-06-09T04:42:43.832Z,65
2017-06-09T04:43:24.555Z,65
2017-06-09T04:44:05.147Z,65
2017-06-09T04:44:45.738Z,65
2017-06-09T04:45:26.328Z,70
2017-06-09T04:46:06.928Z,70
2017-06-09T04:46:47.514Z,70
2017-06-09T04:47:28.344Z,70
2017-06-09T04:48:08.984Z,70
2017-06-09T04:48:49.564Z,70
2017-06-09T04:49:30.157Z,75
2017-06-09T04:50:10.742Z,75
2017-06-09T04:50:51.338Z,75
2017-06-09T04:51:31.944Z,75
2017-06-09T04:52:12.528Z,75
2017-06-09T04:52:53.124Z,75
2017-06-09T04:53:33.762Z,75
2017-06-09T04:54:14.392Z,75
2017-06-09T04:54:55.008Z,75
2017-06-09T04:55:35.613Z,80
2017-06-09T04:56:16.205Z,80
2017-06-09T04:56:56.802Z,80
2017-06-09T04:57:37.412Z,80
2017-06-09T04:58:18.029Z,80
2017-06-09T04:58:58.627Z,85
2017-06-09T04:59:39.230Z,90
2017-06-09T05:00:19.825Z,95
2017-06-09T05:01:00.407Z,100
2017-06-09T05:01:40.990Z,110
2017-06-09T05:02:21.573Z,140
2017-06-09T05:03:02.158Z,290
2017-06-09T05:03:42.753Z,530
2017-06-09T05:04:23.334Z,780
2017-06-09T05:05:03.922Z,1005
2017-06-09T05:05:44.640Z,1085
2017-06-09T05:06:25.256Z,930
2017-06-09T05:07:05.846Z,590
2017-06-09T05:07:46.459Z,265
2017-06-09T05:08:27.045Z,130
2017-06-09T05:09:07.636Z,120
2017-06-09T05:09:48.213Z,110
2017-06-09T05:10:28.810Z,110
2017-06-09T05:11:09.406Z,110
2017-06-09T05:11:49.998Z,115
2017-06-09T05:12:30.683Z,120
2017-06-09T05:13:11.272Z,140
2017-06-09T05:13:51.944Z,315
2017-06-09T05:14:32.911Z,575
2017-06-09T05:15:13.610Z,815
2017-06-09T05:15:54.231Z,985
2017-06-09T05:16:34.819Z,1100
2017-06-09T05:17:15.453Z,1185
2017-06-09T05:17:56.075Z,1245
2017-06-09T05:18:36.667Z,1260
2017-06-09T05:19:17.844Z,1365
2017-06-09T05:19:58.439Z,1415
2017-06-09T05:20:39.945Z,1400
2017-06-09T05:21:20.647Z,1405
2017-06-09T05:22:01.498Z,1330
2017-06-09T05:22:42.090Z,1305
2017-06-09T05:23:22.778Z,1325
2017-06-09T05:24:03.361Z,1335
2017-06-09T05:24:43.982Z,1355
2017-06-09T05:25:25.371Z,1410
2017-06-09T05:26:05.968Z,1425
2017-06-09T05:26:46.570Z,1440
2017-06-09T05:27:27.169Z,1435
2017-06-09T05:28:07.757Z,1455
2017-06-09T05:28:48.388Z,1435
2017-06-09T05:29:28.966Z,1445
2017-06-09T05:30:09.577Z,1440
2017-06-09T05:30:50.180Z,1455
2017-06-09T05:31:30.766Z,1410
2017-06-09T05:32:11.368Z,1410
2017-06-09T05:32:51.956Z,1370
2017-06-09T05:33:32.569Z,1375
2017-06-09T05:34:13.187Z,1395
2017-06-09T05:34:53.794Z,1385
2017-06-09T05:35:34.390Z,1375
2017-06-09T05:36:14.980Z,1450
2017-06-09T05:36:55.582Z,1430
2017-06-09T05:37:36.220Z,1420
2017-06-09T05:38:16.814Z,1430
2017-06-09T05:38:57.412Z,1435
2017-06-09T05:39:38.039Z,1440
2017-06-09T05:40:18.637Z,1490
2017-06-09T05:40:59.228Z,1550
2017-06-09T05:41:39.820Z,1560
2017-06-09T05:42:20.445Z,1570
2017-06-09T05:43:01.006Z,1510
2017-06-09T05:43:41.631Z,1535
2017-06-09T05:44:22.683Z,1500
2017-06-09T05:45:03.342Z,1580
2017-06-09T05:45:43.937Z,1610
2017-06-09T05:46:24.536Z,1585
2017-06-09T05:47:05.163Z,1610
2017-06-09T05:47:45.780Z,1570
2017-06-09T05:48:26.365Z,1575
2017-06-09T05:49:07.099Z,1720
2017-06-09T05:49:47.715Z,1800
2017-06-09T05:50:28.305Z,1805
2017-06-09T05:51:08.921Z,1775
2017-06-09T05:51:49.532Z,1745
2017-06-09T05:52:30.129Z,1760
2017-06-09T05:53:10.729Z,1695
2017-06-09T05:53:51.336Z,1640
2017-06-09T05:54:31.940Z,1715
2017-06-09T05:55:12.542Z,1785
2017-06-09T05:55:53.137Z,1830
2017-06-09T05:56:33.722Z,1790
2017-06-09T05:57:14.356Z,1730
2017-06-09T05:57:55.012Z,1565
2017-06-09T05:58:35.673Z,1535
2017-06-09T05:59:16.253Z,1475
2017-06-09T05:59:56.875Z,1510
2017-06-09T06:00:37.459Z,1490
2017-06-09T06:01:18.074Z,1530
2017-06-09T06:01:58.743Z,1565
2017-06-09T06:02:39.466Z,1685
2017-06-09T06:03:20.064Z,1690
2017-06-09T06:04:00.668Z,1695
2017-06-09T06:04:41.264Z,1695
2017-06-09T06:05:21.855Z,1660
2017-06-09T06:06:02.613Z,1745
2017-06-09T06:06:43.097Z,1765
2017-06-09T06:07:23.706Z,1880
2017-06-09T06:08:04.315Z,1910
2017-06-09T06:08:45.005Z,1815
2017-06-09T06:09:25.656Z,1860
2017-06-09T06:10:07.546Z,1900
2017-06-09T06:10:49.316Z,1945
2017-06-09T06:11:30.909Z,1925
2017-06-09T06:12:11.756Z,1915
2017-06-09T06:12:59.943Z,1915
2017-06-09T06:13:42.383Z,1965
2017-06-09T06:14:23.041Z,2025
2017-06-09T06:15:03.700Z,2020
2017-06-09T06:15:44.288Z,1980
2017-06-09T06:16:26.457Z,1935
2017-06-09T06:17:07.062Z,1925
2017-06-09T06:17:47.703Z,1955
2017-06-09T06:18:28.385Z,1900
2017-06-09T06:19:08.989Z,1770
2017-06-09T06:19:49.595Z,1730
2017-06-09T06:20:30.217Z,1880
2017-06-09T06:21:10.823Z,2005
2017-06-09T06:21:51.423Z,1975
2017-06-09T06:22:32.051Z,1995
2017-06-09T06:23:12.651Z,1950
2017-06-09T06:23:53.433Z,1925
2017-06-09T06:24:34.032Z,1905
2017-06-09T06:25:14.816Z,1950
2017-06-09T06:25:55.515Z,1985
2017-06-09T06:26:36.138Z,1985
2017-06-09T06:27:16.781Z,1860
2017-06-09T06:27:57.476Z,1760
2017-06-09T06:28:38.071Z,1815
2017-06-09T06:29:18.681Z,1870
2017-06-09T06:29:59.275Z,1855
2017-06-09T06:30:40.178Z,1810
2017-06-09T06:31:21.212Z,1870
2017-06-09T06:32:02.125Z,1825
2017-06-09T06:32:43.671Z,1795
2017-06-09T06:33:25.048Z,1830
2017-06-09T06:34:09.075Z,1875
2017-06-09T06:34:54.723Z,1890
2017-06-09T06:35:45.616Z,1850
2017-06-09T06:36:30.984Z,1750
2017-06-09T06:37:16.444Z,1600
2017-06-09T06:37:58.120Z,1470
2017-06-09T06:38:38.715Z,1555
2017-06-09T06:39:19.998Z,1505
2017-06-09T06:40:00.589Z,1315
2017-06-09T06:40:41.361Z,1410
2017-06-09T06:41:22.426Z,1250
2017-06-09T06:42:03.403Z,1215
2017-06-09T06:42:44.665Z,1255
2017-06-09T06:43:26.902Z,1295
2017-06-09T06:44:08.729Z,1340
2017-06-09T06:44:50.978Z,1400
2017-06-09T06:45:33.218Z,1375
2017-06-09T06:46:14.245Z,1425
2017-06-09T06:46:55.241Z,1435
2017-06-09T06:47:36.129Z,1380
2017-06-09T06:48:17.042Z,1255
2017-06-09T06:48:57.899Z,1190
2017-06-09T06:49:39.460Z,1025
2017-06-09T06:50:20.689Z,1115
2017-06-09T06:51:01.345Z,1250
2017-06-09T06:51:42.319Z,1275
2017-06-09T06:52:23.326Z,1285
2017-06-09T06:53:04.405Z,1160
2017-06-09T06:53:45.239Z,1110
2017-06-09T06:54:25.895Z,1165
2017-06-09T06:55:06.778Z,1130
2017-06-09T06:55:47.749Z,1160
2017-06-09T06:56:29.843Z,940
2017-06-09T06:57:10.597Z,770
2017-06-09T06:57:51.616Z,890
2017-06-09T06:58:32.509Z,1005
2017-06-09T06:59:13.476Z,1175
2017-06-09T06:59:54.003Z,1285
2017-06-09T07:00:38.354Z,1425
2017-06-09T07:01:19.104Z,1490
2017-06-09T07:01:59.836Z,1590
2017-06-09T07:02:40.535Z,1520
2017-06-09T07:03:21.485Z,1425
2017-06-09T07:04:02.437Z,1190
2017-06-09T07:04:43.491Z,975
2017-06-09T07:05:24.348Z,800
2017-06-09T07:06:05.051Z,895
2017-06-09T07:06:45.674Z,950
2017-06-09T07:07:26.293Z,860
2017-06-09T07:08:06.882Z,770
2017-06-09T07:08:47.481Z,690
2017-06-09T07:09:28.205Z,650
2017-06-09T07:10:08.799Z,740
2017-06-09T07:10:49.411Z,705
2017-06-09T07:11:30.027Z,635
2017-06-09T07:12:10.630Z,555
2017-06-09T07:12:51.221Z,520
2017-06-09T07:13:31.820Z,540
2017-06-09T07:14:12.421Z,515
2017-06-09T07:14:53.020Z,630
2017-06-09T07:15:33.619Z,645
2017-06-09T07:16:25.711Z,635
2017-06-09T07:17:07.252Z,645
2017-06-09T07:17:47.854Z,610
2017-06-09T07:18:28.491Z,595
2017-06-09T07:19:09.194Z,560
2017-06-09T07:19:49.813Z,555
2017-06-09T07:20:34.817Z,535
2017-06-09T07:21:15.432Z,525
2017-06-09T07:21:56.038Z,485
2017-06-09T07:22:36.634Z,505
2017-06-09T07:23:23.982Z,455
2017-06-09T07:24:06.761Z,475
2017-06-09T07:24:49.850Z,485
2017-06-09T07:25:32.359Z,505
2017-06-09T07:26:13.122Z,515
2017-06-09T07:26:55.258Z,520
2017-06-09T07:27:37.937Z,515
2017-06-09T07:28:18.608Z,540
2017-06-09T07:29:00.403Z,545
2017-06-09T07:29:41.647Z,540
2017-06-09T07:30:22.734Z,505
2017-06-09T07:31:03.337Z,540
2017-06-09T07:31:43.925Z,545
2017-06-09T07:32:24.526Z,545
2017-06-09T07:33:05.301Z,555
2017-06-09T07:33:45.914Z,555
2017-06-09T07:34:26.518Z,555
2017-06-09T07:35:07.129Z,550
2017-06-09T07:35:48.136Z,550
2017-06-09T07:36:31.052Z,545
2017-06-09T07:37:16.448Z,540
2017-06-09T07:38:15.820Z,535
2017-06-09T07:39:22.379Z,525
2017-06-09T07:40:10.628Z,505
2017-06-09T07:41:00.006Z,515
2017-06-09T07:42:04.069Z,510
2017-06-09T07:42:49.862Z,515
2017-06-09T07:43:31.647Z,510
2017-06-09T07:44:13.799Z,500
2017-06-09T07:44:56.625Z,500
2017-06-09T07:45:37.674Z,505
2017-06-09T07:46:18.277Z,520
2017-06-09T07:47:01.344Z,505
2017-06-09T07:47:43.818Z,480
2017-06-09T07:48:30.365Z,470
2017-06-09T07:49:18.257Z,485
2017-06-09T07:50:00.068Z,500
2017-06-09T07:50:40.691Z,500
2017-06-09T07:51:21.302Z,500
2017-06-09T07:52:04.534Z,515
2017-06-09T07:52:47.639Z,510
2017-06-09T07:53:32.961Z,520
2017-06-09T07:54:13.574Z,505
2017-06-09T07:54:54.168Z,515
2017-06-09T07:55:34.769Z,515
2017-06-09T07:56:16.740Z,505
2017-06-09T07:57:00.428Z,495
2017-06-09T07:57:41.043Z,475
2017-06-09T07:58:21.644Z,435
2017-06-09T07:59:02.261Z,395
2017-06-09T07:59:42.875Z,355
2017-06-09T08:00:24.665Z,350
2017-06-09T08:01:16.771Z,360
2017-06-09T08:02:00.031Z,355
2017-06-09T08:02:40.637Z,355
2017-06-09T08:03:21.252Z,340
2017-06-09T08:04:01.924Z,330
2017-06-09T08:04:42.531Z,330
2017-06-09T08:05:23.305Z,330
2017-06-09T08:06:05.137Z,320
2017-06-09T08:06:46.032Z,325
2017-06-09T08:07:26.677Z,320
2017-06-09T08:08:09.051Z,320
2017-06-09T08:08:51.427Z,315
2017-06-09T08:09:32.179Z,315
2017-06-09T08:10:12.811Z,320
2017-06-09T08:10:57.311Z,310
2017-06-09T08:11:40.902Z,285
2017-06-09T08:12:21.547Z,285
2017-06-09T08:13:02.151Z,295
2017-06-09T08:13:42.792Z,295
2017-06-09T08:14:23.909Z,305
2017-06-09T08:15:04.502Z,295
2017-06-09T08:15:45.162Z,295
2017-06-09T08:16:29.825Z,295
2017-06-09T08:17:13.723Z,295
2017-06-09T08:19:53.352Z,290
2017-06-09T08:20:33.990Z,280
2017-06-09T08:21:14.551Z,275
2017-06-09T08:21:55.134Z,275
2017-06-09T08:22:35.964Z,270
2017-06-09T08:23:16.619Z,265
2017-06-09T08:23:59.234Z,265
2017-06-09T08:24:39.838Z,260
2017-06-09T08:25:20.425Z,255
2017-06-09T08:26:01.466Z,250
2017-06-09T08:26:42.297Z,245
2017-06-09T08:27:22.888Z,245
2017-06-09T08:28:04.878Z,240
2017-06-09T08:28:45.480Z,235
2017-06-09T08:29:30.653Z,225
2017-06-09T08:30:45.839Z,220
2017-06-09T08:31:26.571Z,215
2017-06-09T08:32:07.205Z,210
2017-06-09T08:32:50.044Z,215
2017-06-09T08:33:38.850Z,210
2017-06-09T08:34:22.304Z,210
2017-06-09T08:35:09.715Z,205
2017-06-09T08:36:05.653Z,205
2017-06-09T08:37:06.360Z,205
2017-06-09T08:37:50.477Z,200
2017-06-09T08:38:35.108Z,200
2017-06-09T08:39:15.696Z,200
2017-06-09T08:39:57.061Z,200
2017-06-09T08:40:37.676Z,200
2017-06-09T08:41:18.357Z,200
2017-06-09T08:41:58.941Z,195
2017-06-09T08:42:39.533Z,195
2017-06-09T08:43:20.130Z,190
2017-06-09T08:44:00.734Z,190
2017-06-09T08:44:41.340Z,195
2017-06-09T08:45:21.936Z,190
2017-06-09T08:46:02.586Z,190
2017-06-09T08:46:43.181Z,190
2017-06-09T08:47:23.767Z,185
2017-06-09T08:48:04.414Z,185
2017-06-09T08:48:45.027Z,185
2017-06-09T08:49:25.622Z,185
2017-06-09T08:50:06.221Z,190
2017-06-09T08:50:46.821Z,180
2017-06-09T08:51:27.575Z,180
2017-06-09T08:52:08.260Z,180
2017-06-09T08:52:48.844Z,180
2017-06-09T08:53:29.480Z,180
2017-06-09T08:54:10.109Z,175
2017-06-09T08:54:50.676Z,170
2017-06-09T08:55:31.278Z,170
2017-06-09T08:56:11.886Z,170
2017-06-09T08:56:52.493Z,165
2017-06-09T08:57:33.091Z,165
2017-06-09T08:58:13.722Z,160
2017-06-09T08:58:54.311Z,160
2017-06-09T08:59:34.914Z,160
2017-06-09T09:00:15.533Z,160
2017-06-09T09:00:56.149Z,155
2017-06-09T09:01:36.746Z,155
2017-06-09T09:02:17.363Z,155
2017-06-09T09:02:57.942Z,150
2017-06-09T09:03:39.745Z,150
2017-06-09T09:04:20.384Z,155
2017-06-09T09:05:00.987Z,145
2017-06-09T09:05:41.591Z,150
2017-06-09T09:06:22.171Z,145
2017-06-09T09:07:02.766Z,140
2017-06-09T09:07:43.360Z,140
2017-06-09T09:08:23.991Z,140
2017-06-09T09:09:04.554Z,140
2017-06-09T09:09:45.284Z,140
2017-06-09T09:10:25.882Z,135
2017-06-09T09:11:06.500Z,135
2017-06-09T09:11:47.078Z,135
2017-06-09T09:12:27.670Z,135
2017-06-09T09:13:08.258Z,135
2017-06-09T09:13:48.874Z,135
2017-06-09T09:14:29.459Z,130
2017-06-09T09:15:10.055Z,130
2017-06-09T09:15:50.712Z,130
2017-06-09T09:16:31.297Z,130
2017-06-09T09:17:11.890Z,130
2017-06-09T09:17:52.501Z,125
2017-06-09T09:18:33.086Z,125
2017-06-09T09:19:13.672Z,125
2017-06-09T09:19:54.244Z,125
2017-06-09T09:20:34.848Z,125
2017-06-09T09:21:15.433Z,120
2017-06-09T09:21:56.027Z,120
2017-06-09T09:22:36.610Z,120
2017-06-09T09:23:17.190Z,120
2017-06-09T09:23:57.782Z,120
2017-06-09T09:24:38.364Z,120
2017-06-09T09:25:19.154Z,115
2017-06-09T09:25:59.742Z,115
2017-06-09T09:26:40.392Z,115
2017-06-09T09:27:21.014Z,115
2017-06-09T09:28:01.624Z,115
2017-06-09T09:28:42.217Z,115
2017-06-09T09:29:22.845Z,115
2017-06-09T09:30:03.438Z,115
2017-06-09T09:30:44.014Z,110
2017-06-09T09:31:24.618Z,110
2017-06-09T09:32:05.216Z,110
2017-06-09T09:32:45.802Z,110
2017-06-09T09:33:26.421Z,110
2017-06-09T09:34:07.012Z,110
2017-06-09T09:34:47.607Z,110
2017-06-09T09:35:28.199Z,110
2017-06-09T09:36:08.786Z,110
2017-06-09T09:36:49.379Z,110
2017-06-09T09:37:29.975Z,105
2017-06-09T09:38:10.564Z,110
2017-06-09T09:38:51.182Z,105
2017-06-09T09:39:31.791Z,105
2017-06-09T09:40:12.426Z,105
2017-06-09T09:40:53.010Z,105